createdAt,value
2022-11-07T00:01:21.438Z,13.90
2022-11-07T00:03:49.257Z,10.07
2022-11-07T00:06:19.189Z,13.07
2022-11-07T00:08:46.530Z,15.90
2022-11-07T00:11:13.887Z,16.25
2022-11-07T00:13:41.356Z,15.15
2022-11-07T00:16:10.628Z,11.65
2022-11-07T00:18:38.688Z,13.23
2022-11-07T00:21:08.957Z,16.92
2022-11-07T00:23:36.881Z,12.82
2022-11-07T00:26:15.017Z,20.02
2022-11-07T00:28:43.864Z,16.65
2022-11-07T00:31:13.266Z,19.02
2022-11-07T00:33:41.765Z,16.23
2022-11-07T00:36:10.077Z,19.45
2022-11-07T00:38:37.613Z,15.00
2022-11-07T00:41:06.426Z,12.57
2022-11-07T00:43:34.257Z,15.73
2022-11-07T00:46:03.051Z,18.23
2022-11-07T00:48:30.722Z,16.08
2022-11-07T00:50:58.281Z,17.38
2022-11-07T00:53:25.645Z,16.10
2022-11-07T00:55:52.987Z,14.45
2022-11-07T00:58:20.386Z,18.33
2022-11-07T01:00:47.726Z,12.23
2022-11-07T01:03:33.856Z,11.98
2022-11-07T01:06:04.261Z,12.77
2022-11-07T01:08:35.451Z,14.27
2022-11-07T01:11:07.481Z,12.80
2022-11-07T01:13:35.235Z,14.27
2022-11-07T01:16:03.184Z,14.48
2022-11-07T01:18:30.587Z,14.10
2022-11-07T01:20:57.946Z,12.32
2022-11-07T01:23:25.332Z,12.90
2022-11-07T01:25:52.726Z,13.27
2022-11-07T01:28:20.091Z,11.38
2022-11-07T01:30:47.480Z,12.68
2022-11-07T01:33:15.130Z,12.93
2022-11-07T01:35:42.701Z,13.65
2022-11-07T01:38:10.097Z,11.68
2022-11-07T01:41:02.377Z,8.98
2022-11-07T01:43:59.996Z,11.55
2022-11-07T01:46:33.216Z,8.15
2022-11-07T01:49:20.894Z,27.98
2022-11-07T01:52:06.986Z,12.23
2022-11-07T01:54:39.583Z,10.00
2022-11-07T01:57:12.540Z,8.60
2022-11-07T01:59:40.814Z,9.65
2022-11-07T02:02:09.773Z,11.07
2022-11-07T02:04:37.871Z,11.20
2022-11-07T02:07:18.363Z,10.02
2022-11-07T02:09:46.308Z,13.40
2022-11-07T02:12:15.344Z,10.68
2022-11-07T02:14:43.638Z,11.15
2022-11-07T02:17:12.267Z,11.05
2022-11-07T02:19:43.336Z,9.98
2022-11-07T02:22:32.323Z,13.52
2022-11-07T02:25:03.315Z,10.20
2022-11-07T02:27:34.019Z,9.10
2022-11-07T02:30:09.087Z,11.38
2022-11-07T02:32:36.760Z,13.57
2022-11-07T02:35:07.516Z,11.93
2022-11-07T02:37:38.857Z,11.13
2022-11-07T02:40:09.409Z,9.60
2022-11-07T02:42:44.673Z,9.07
2022-11-07T02:45:40.592Z,12.90
2022-11-07T02:48:08.296Z,11.75
2022-11-07T02:50:35.707Z,11.75
2022-11-07T02:53:03.153Z,15.93
2022-11-07T02:55:30.475Z,9.93
2022-11-07T02:57:57.819Z,13.27
2022-11-07T03:00:25.171Z,12.05
2022-11-07T03:02:52.624Z,9.93
2022-11-07T03:05:20.854Z,19.80
2022-11-07T03:07:50.100Z,11.57
2022-11-07T03:10:18.052Z,10.65
2022-11-07T03:12:46.186Z,12.07
2022-11-07T03:15:14.060Z,11.95
2022-11-07T03:17:42.317Z,12.55
2022-11-07T03:20:10.380Z,17.35
2022-11-07T03:22:37.857Z,12.60
2022-11-07T03:25:06.580Z,15.75
2022-11-07T03:27:34.102Z,13.48
2022-11-07T03:30:01.594Z,13.70
2022-11-07T03:32:29.000Z,17.98
2022-11-07T03:34:56.389Z,18.33
2022-11-07T03:37:23.732Z,18.25
2022-11-07T03:39:51.072Z,16.33
2022-11-07T03:42:18.445Z,20.73
2022-11-07T03:44:45.837Z,13.65
2022-11-07T03:47:13.212Z,20.23
2022-11-07T03:49:40.610Z,21.85
2022-11-07T03:52:08.240Z,20.33
2022-11-07T03:54:35.620Z,21.38
2022-11-07T03:57:03.123Z,21.25
2022-11-07T03:59:30.471Z,18.73
2022-11-07T04:01:58.011Z,18.10
2022-11-07T04:04:25.450Z,17.08
2022-11-07T04:06:52.842Z,16.33
2022-11-07T04:09:20.225Z,16.45
2022-11-07T04:12:06.176Z,15.60
2022-11-07T04:15:08.694Z,21.08
2022-11-07T04:17:36.037Z,17.15
2022-11-07T04:20:04.790Z,17.50
2022-11-07T04:22:32.857Z,20.25
2022-11-07T04:25:00.246Z,19.55
2022-11-07T04:27:42.516Z,17.88
2022-11-07T04:30:22.520Z,19.33
2022-11-07T04:32:55.082Z,17.85
2022-11-07T04:35:25.351Z,24.60
2022-11-07T04:37:53.863Z,17.75
2022-11-07T04:40:21.930Z,23.60
2022-11-07T04:42:50.009Z,23.00
2022-11-07T04:45:18.061Z,22.38
2022-11-07T04:47:45.833Z,18.88
2022-11-07T04:50:15.897Z,16.42
2022-11-07T04:52:43.461Z,21.25
2022-11-07T04:55:21.818Z,23.88
2022-11-07T04:57:49.222Z,17.63
2022-11-07T05:00:18.370Z,20.30
2022-11-07T05:02:46.630Z,18.40
2022-11-07T05:05:14.100Z,18.15
2022-11-07T05:07:42.310Z,20.27
2022-11-07T05:10:17.443Z,15.95
2022-11-07T05:12:44.797Z,21.13
2022-11-07T05:15:12.369Z,19.20
2022-11-07T05:17:40.096Z,17.73
2022-11-07T05:20:11.604Z,23.52
2022-11-07T05:22:57.585Z,13.60
2022-11-07T05:25:24.932Z,16.05
2022-11-07T05:27:55.720Z,21.30
2022-11-07T05:30:23.084Z,18.63
2022-11-07T05:32:51.255Z,27.48
2022-11-07T05:35:18.605Z,15.65
2022-11-07T05:37:45.989Z,15.55
2022-11-07T05:40:13.370Z,17.88
2022-11-07T05:42:40.723Z,21.25
2022-11-07T05:45:08.737Z,17.00
2022-11-07T05:47:36.088Z,21.02
2022-11-07T05:50:03.575Z,19.42
2022-11-07T05:52:32.960Z,18.83
2022-11-07T05:55:00.293Z,21.48
2022-11-07T05:57:29.780Z,17.60
2022-11-07T05:59:57.120Z,17.77
2022-11-07T06:02:24.613Z,15.57
2022-11-07T06:04:52.118Z,14.45
2022-11-07T06:07:19.538Z,14.85
2022-11-07T06:09:46.993Z,15.25
2022-11-07T06:12:14.395Z,14.77
2022-11-07T06:14:41.737Z,14.85
2022-11-07T06:17:09.925Z,13.77
2022-11-07T06:19:37.279Z,16.27
2022-11-07T06:22:04.626Z,16.38
2022-11-07T06:24:31.979Z,15.35
2022-11-07T06:27:00.267Z,23.95
2022-11-07T06:29:29.804Z,13.70
2022-11-07T06:31:57.216Z,15.60
2022-11-07T06:34:24.670Z,15.95
2022-11-07T06:37:02.465Z,15.23
2022-11-07T06:39:30.513Z,20.83
2022-11-07T06:41:57.856Z,36.22
2022-11-07T06:44:25.254Z,21.58
2022-11-07T06:46:52.604Z,19.85
2022-11-07T06:49:19.979Z,21.33
2022-11-07T06:51:48.114Z,18.90
2022-11-07T06:54:18.069Z,18.02
2022-11-07T06:56:45.473Z,23.25
2022-11-07T06:59:12.900Z,18.42
2022-11-07T07:01:40.434Z,15.52
2022-11-07T07:04:11.158Z,14.23
2022-11-07T07:06:39.893Z,14.85
2022-11-07T07:09:07.380Z,10.55
2022-11-07T07:11:38.577Z,11.52
2022-11-07T07:14:11.280Z,13.32
2022-11-07T07:16:39.317Z,10.75
2022-11-07T07:19:06.732Z,11.82
2022-11-07T07:21:34.771Z,10.30
2022-11-07T07:24:02.149Z,15.38
2022-11-07T07:26:29.604Z,14.02
2022-11-07T07:28:57.052Z,15.18
2022-11-07T07:31:30.786Z,12.48
2022-11-07T07:33:58.668Z,13.52
2022-11-07T07:36:26.367Z,17.23
2022-11-07T07:38:53.965Z,12.40
2022-11-07T07:41:21.528Z,13.43
2022-11-07T07:43:48.983Z,16.73
2022-11-07T07:46:21.235Z,14.18
2022-11-07T07:48:48.647Z,15.88
2022-11-07T07:51:19.097Z,10.57
2022-11-07T07:53:46.513Z,16.42
2022-11-07T07:56:17.598Z,18.02
2022-11-07T07:58:45.471Z,19.63
2022-11-07T08:01:12.884Z,41.17
2022-11-07T08:04:00.223Z,12.02
2022-11-07T08:06:27.707Z,11.02
2022-11-07T08:08:55.883Z,10.05
2022-11-07T08:11:23.442Z,9.90
2022-11-07T08:13:50.853Z,11.15
2022-11-07T08:16:18.252Z,9.80
2022-11-07T08:18:45.631Z,11.18
2022-11-07T08:21:13.068Z,7.85
2022-11-07T08:23:40.452Z,9.38
2022-11-07T08:26:07.832Z,15.15
2022-11-07T08:28:36.223Z,7.43
2022-11-07T08:31:09.795Z,10.10
2022-11-07T08:33:38.969Z,11.88
2022-11-07T08:36:07.534Z,9.57
2022-11-07T08:38:35.947Z,5.57
2022-11-07T08:41:04.511Z,8.00
2022-11-07T08:43:31.991Z,6.80
2022-11-07T08:45:59.830Z,10.90
2022-11-07T08:48:27.243Z,12.98
2022-11-07T08:50:56.932Z,16.27
2022-11-07T08:53:26.056Z,7.50
2022-11-07T08:56:00.384Z,10.55
2022-11-07T08:58:30.383Z,9.23
2022-11-07T09:00:58.190Z,9.20
2022-11-07T09:06:13.426Z,9.57
2022-11-07T09:08:41.123Z,12.18
2022-11-07T09:11:08.662Z,13.02
2022-11-07T09:13:36.931Z,12.80
2022-11-07T09:16:05.372Z,13.35
2022-11-07T09:18:33.440Z,9.35
2022-11-07T09:21:00.806Z,13.00
2022-11-07T09:23:28.250Z,12.15
2022-11-07T09:25:58.173Z,12.43
2022-11-07T09:28:25.649Z,9.82
2022-11-07T09:30:57.122Z,8.68
2022-11-07T09:33:25.018Z,11.32
2022-11-07T09:35:52.753Z,9.50
2022-11-07T09:38:20.496Z,10.60
2022-11-07T09:41:27.023Z,12.48
2022-11-07T09:44:04.848Z,11.35
2022-11-07T09:47:20.798Z,11.45
2022-11-07T09:49:52.299Z,9.77
2022-11-07T09:52:35.787Z,13.48
2022-11-07T09:55:09.575Z,15.45
2022-11-07T09:57:38.258Z,10.88
2022-11-07T10:00:15.252Z,12.05
2022-11-07T10:02:52.955Z,11.90
2022-11-07T10:05:38.123Z,11.45
2022-11-07T10:08:34.287Z,11.25
2022-11-07T10:11:07.372Z,11.73
2022-11-07T10:13:50.511Z,13.35
2022-11-07T10:16:47.825Z,11.27
2022-11-07T10:19:50.371Z,12.90
2022-11-07T10:22:26.553Z,12.85
2022-11-07T10:25:18.400Z,8.45
2022-11-07T10:28:11.152Z,16.80
2022-11-07T10:33:21.310Z,11.00
2022-11-07T10:36:16.050Z,17.88
2022-11-07T10:38:44.331Z,15.55
2022-11-07T10:41:32.048Z,15.90
2022-11-07T10:44:10.609Z,13.50
2022-11-07T10:46:43.515Z,12.60
2022-11-07T10:49:34.150Z,17.35
2022-11-07T10:52:19.628Z,17.30
2022-11-07T10:54:47.132Z,16.15
2022-11-07T10:57:14.541Z,14.55
2022-11-07T10:59:56.446Z,14.90
2022-11-07T11:02:25.509Z,12.65
2022-11-07T11:04:55.675Z,17.00
2022-11-07T11:07:28.531Z,15.38
2022-11-07T11:09:58.112Z,13.60
2022-11-07T11:12:34.499Z,16.02
2022-11-07T11:15:12.312Z,17.95
2022-11-07T11:17:40.212Z,19.20
2022-11-07T11:20:26.346Z,14.15
2022-11-07T11:22:54.567Z,18.48
2022-11-07T11:25:23.873Z,16.95
2022-11-07T11:28:01.689Z,18.10
2022-11-07T11:30:30.849Z,18.20
2022-11-07T11:33:05.777Z,17.17
2022-11-07T11:35:55.526Z,17.85
2022-11-07T11:38:39.378Z,18.23
2022-11-07T11:41:21.992Z,21.73
2022-11-07T11:46:32.673Z,20.02
2022-11-07T11:49:23.854Z,20.95
2022-11-07T11:52:28.007Z,19.27
2022-11-07T11:54:57.290Z,19.92
2022-11-07T11:57:40.557Z,19.15
2022-11-07T12:00:15.678Z,16.48
2022-11-07T12:02:50.248Z,15.85
2022-11-07T12:05:29.273Z,17.00
2022-11-07T12:07:56.584Z,18.45
2022-11-07T12:10:50.083Z,19.10
2022-11-07T12:13:54.154Z,21.00
2022-11-07T12:16:30.319Z,21.27
2022-11-07T12:19:12.442Z,17.40
2022-11-07T12:21:49.730Z,18.45
2022-11-07T12:24:44.646Z,19.00
2022-11-07T12:27:47.317Z,19.90
2022-11-07T12:30:25.826Z,19.85
2022-11-07T12:33:15.489Z,20.88
2022-11-07T12:36:00.289Z,22.67
2022-11-07T12:38:58.653Z,20.45
2022-11-07T12:41:43.227Z,20.88
2022-11-07T12:44:23.156Z,22.67
2022-11-07T12:46:58.707Z,23.77
2022-11-07T12:49:48.908Z,20.00
2022-11-07T12:52:30.418Z,18.42
2022-11-07T12:55:24.810Z,24.67
2022-11-07T12:57:54.742Z,19.02
2022-11-07T13:00:29.594Z,22.83
2022-11-07T13:03:10.912Z,20.48
2022-11-07T13:06:03.942Z,18.77
2022-11-07T13:08:52.358Z,18.05
2022-11-07T13:11:20.035Z,17.40
2022-11-07T13:14:03.792Z,22.60
2022-11-07T13:16:36.209Z,19.05
2022-11-07T13:19:10.504Z,22.13
2022-11-07T13:21:42.896Z,19.63
2022-11-07T13:26:49.675Z,22.10
2022-11-07T13:29:41.122Z,20.73
2022-11-07T13:32:14.048Z,22.33
2022-11-07T13:34:58.197Z,20.10
2022-11-07T13:37:30.012Z,21.58
2022-11-07T13:40:06.092Z,17.48
2022-11-07T13:42:35.128Z,17.60
2022-11-07T13:45:26.251Z,20.13
2022-11-07T13:47:58.048Z,21.08
2022-11-07T13:50:39.008Z,20.77
2022-11-07T13:53:20.954Z,23.00
2022-11-07T13:56:03.553Z,21.67
2022-11-07T14:01:13.221Z,21.15
2022-11-07T14:03:40.790Z,25.50
2022-11-07T14:06:12.371Z,40.95
2022-11-07T14:08:44.034Z,24.73
2022-11-07T14:11:23.160Z,24.48
2022-11-07T14:13:53.660Z,25.38
2022-11-07T14:16:24.368Z,25.25
2022-11-07T14:19:16.833Z,32.65
2022-11-07T14:21:46.460Z,28.75
2022-11-07T14:24:28.058Z,20.92
2022-11-07T14:27:11.443Z,22.60
2022-11-07T14:29:39.103Z,20.95
2022-11-07T14:32:07.501Z,19.70
2022-11-07T14:34:36.010Z,21.98
2022-11-07T14:37:08.997Z,20.98
2022-11-07T14:39:36.600Z,29.27
2022-11-07T14:42:06.555Z,24.83
2022-11-07T14:44:59.277Z,25.70
2022-11-07T14:47:31.832Z,23.55
2022-11-07T14:50:01.861Z,35.58
2022-11-07T14:52:37.156Z,24.85
2022-11-07T14:55:30.881Z,29.27
2022-11-07T14:58:03.160Z,23.80
2022-11-07T15:02:59.641Z,29.73
2022-11-07T15:05:31.332Z,27.27
2022-11-07T15:07:59.751Z,25.05
2022-11-07T15:10:36.684Z,26.48
2022-11-07T15:13:21.264Z,22.80
2022-11-07T15:16:04.775Z,41.08
2022-11-07T15:18:39.764Z,39.15
2022-11-07T15:21:10.058Z,29.35
2022-11-07T15:23:37.597Z,39.28
2022-11-07T15:26:07.768Z,34.63
2022-11-07T15:28:47.217Z,34.35
2022-11-07T15:31:23.109Z,32.80
2022-11-07T15:33:52.849Z,25.27
2022-11-07T15:36:20.753Z,25.83
2022-11-07T15:38:49.782Z,24.90
2022-11-07T15:41:18.021Z,22.67
2022-11-07T15:43:45.616Z,27.27
2022-11-07T15:46:31.257Z,28.52
2022-11-07T15:48:58.770Z,36.65
2022-11-07T15:51:26.162Z,35.10
2022-11-07T15:53:54.415Z,32.75
2022-11-07T15:56:24.502Z,58.30
2022-11-07T15:58:53.548Z,66.20
2022-11-07T16:01:21.100Z,53.78
2022-11-07T16:03:48.492Z,43.17
2022-11-07T16:06:39.793Z,41.22
2022-11-07T16:09:18.853Z,37.17
2022-11-07T16:11:46.931Z,39.42
2022-11-07T16:14:42.313Z,42.55
2022-11-07T16:17:03.763Z,44.45
2022-11-07T16:19:31.361Z,63.40
2022-11-07T16:21:58.780Z,35.20
2022-11-07T16:24:26.158Z,40.35
2022-11-07T16:26:53.618Z,39.15
2022-11-07T16:29:20.995Z,39.35
2022-11-07T16:31:48.351Z,37.95
2022-11-07T16:34:15.881Z,48.80
2022-11-07T16:36:43.336Z,37.67
2022-11-07T16:39:20.372Z,48.17
2022-11-07T16:41:48.899Z,46.58
2022-11-07T16:44:20.402Z,47.17
2022-11-07T16:46:51.576Z,41.42
2022-11-07T16:49:30.731Z,46.38
2022-11-07T16:51:58.476Z,40.17
2022-11-07T16:54:26.236Z,46.15
2022-11-07T16:56:53.796Z,48.15
2022-11-07T16:59:23.266Z,40.83
2022-11-07T17:01:52.118Z,42.40
2022-11-07T17:04:19.741Z,36.53
2022-11-07T17:06:50.613Z,45.63
2022-11-07T17:09:20.497Z,55.25
2022-11-07T17:11:47.968Z,49.03
2022-11-07T17:14:15.397Z,50.53
2022-11-07T17:16:46.348Z,67.72
2022-11-07T17:19:15.367Z,53.55
2022-11-07T17:21:46.442Z,49.75
2022-11-07T17:24:14.049Z,39.78
2022-11-07T17:26:41.450Z,44.97
2022-11-07T17:29:13.228Z,45.60
2022-11-07T17:31:41.985Z,48.90
2022-11-07T17:34:09.890Z,60.85
2022-11-07T17:36:40.452Z,54.85
2022-11-07T17:39:16.288Z,52.83
2022-11-07T17:41:45.269Z,44.08
2022-11-07T17:44:13.197Z,57.88
2022-11-07T17:46:49.163Z,58.13
2022-11-07T17:49:19.109Z,50.42
2022-11-07T17:51:46.926Z,55.45
2022-11-07T17:54:15.883Z,46.65
2022-11-07T17:56:43.483Z,42.75
2022-11-07T17:59:14.834Z,46.85
2022-11-07T18:01:42.886Z,49.50
2022-11-07T18:04:12.608Z,40.50
2022-11-07T18:06:41.594Z,48.38
2022-11-07T18:09:14.418Z,50.55
2022-11-07T18:11:42.279Z,42.08
2022-11-07T18:14:11.111Z,36.88
2022-11-07T18:16:38.719Z,32.97
2022-11-07T18:19:06.757Z,35.05
2022-11-07T18:21:34.375Z,32.05
2022-11-07T18:24:02.137Z,33.15
2022-11-07T18:26:31.187Z,40.40
2022-11-07T18:29:06.441Z,55.08
2022-11-07T18:31:34.710Z,40.45
2022-11-07T18:34:08.158Z,57.22
2022-11-07T18:36:38.535Z,41.60
2022-11-07T18:39:08.736Z,52.42
2022-11-07T18:41:36.220Z,52.05
2022-11-07T18:44:05.254Z,47.83
2022-11-07T18:46:33.207Z,119.05
2022-11-07T18:49:05.289Z,86.78
2022-11-07T18:51:33.964Z,52.92
2022-11-07T18:54:04.354Z,39.88
2022-11-07T18:56:32.021Z,42.08
2022-11-07T18:58:59.782Z,33.20
2022-11-07T19:01:30.838Z,34.40
2022-11-07T19:04:01.094Z,32.97
2022-11-07T19:06:30.515Z,34.47
2022-11-07T19:08:58.476Z,40.45
2022-11-07T19:11:29.503Z,32.00
2022-11-07T19:14:01.036Z,47.13
2022-11-07T19:18:59.403Z,45.17
2022-11-07T19:21:27.232Z,39.75
2022-11-07T19:23:54.733Z,39.42
2022-11-07T19:26:22.150Z,40.25
2022-11-07T19:28:50.514Z,43.13
2022-11-07T19:31:17.859Z,50.70
2022-11-07T19:33:45.355Z,51.72
2022-11-07T19:36:18.279Z,42.97
2022-11-07T19:38:46.258Z,43.15
2022-11-07T19:41:14.448Z,46.15
2022-11-07T19:43:43.058Z,49.75
2022-11-07T19:46:13.805Z,40.90
2022-11-07T19:48:41.223Z,47.17
2022-11-07T19:51:11.358Z,80.72
2022-11-07T19:53:38.757Z,48.95
2022-11-07T19:56:11.833Z,49.15
2022-11-07T19:58:39.901Z,46.47
2022-11-07T20:01:15.867Z,50.90
2022-11-07T20:03:45.122Z,48.88
2022-11-07T20:06:14.360Z,61.85
2022-11-07T20:08:43.337Z,70.15
2022-11-07T20:11:14.326Z,93.00
2022-11-07T20:13:42.501Z,71.45
2022-11-07T20:16:10.777Z,55.33
2022-11-07T20:18:39.584Z,62.50
2022-11-07T20:21:10.420Z,59.47
2022-11-07T20:23:37.799Z,50.60
2022-11-07T20:26:12.535Z,49.28
2022-11-07T20:28:40.056Z,46.10
2022-11-07T20:31:16.872Z,48.25
2022-11-07T20:33:44.519Z,46.85
2022-11-07T20:36:14.186Z,45.72
2022-11-07T20:38:43.023Z,52.17
2022-11-07T20:41:12.142Z,53.35
2022-11-07T20:43:40.229Z,49.78
2022-11-07T20:46:10.310Z,49.25
2022-11-07T20:48:38.616Z,65.30
2022-11-07T20:51:11.076Z,50.67
2022-11-07T20:53:39.357Z,58.10
2022-11-07T20:56:07.967Z,67.65
2022-11-07T20:58:37.649Z,64.35
2022-11-07T21:01:06.593Z,58.75
2022-11-07T21:03:35.257Z,119.80
2022-11-07T21:06:03.503Z,150.20
2022-11-07T21:08:36.942Z,143.45
2022-11-07T21:11:05.319Z,65.05
2022-11-07T21:13:33.059Z,44.47
2022-11-07T21:16:01.049Z,43.25
2022-11-07T21:18:28.473Z,38.00
2022-11-07T21:21:08.690Z,62.00
2022-11-07T21:23:37.918Z,39.05
2022-11-07T21:26:10.593Z,51.63
2022-11-07T21:28:40.449Z,38.72
2022-11-07T21:31:11.715Z,53.17
2022-11-07T21:33:41.504Z,62.75
2022-11-07T21:36:15.968Z,78.68
2022-11-07T21:38:48.030Z,52.95
2022-11-07T21:41:17.910Z,37.13
2022-11-07T21:43:45.684Z,40.25
2022-11-07T21:46:15.968Z,38.88
2022-11-07T21:48:44.226Z,39.65
2022-11-07T21:51:23.065Z,40.40
2022-11-07T21:53:51.212Z,38.13
2022-11-07T21:56:24.121Z,40.30
2022-11-07T21:58:54.180Z,37.08
2022-11-07T22:01:22.533Z,33.75
2022-11-07T22:04:06.253Z,53.67
2022-11-07T22:06:37.421Z,40.75
2022-11-07T22:09:06.973Z,44.75
2022-11-07T22:11:35.352Z,41.45
2022-11-07T22:14:04.298Z,36.00
2022-11-07T22:16:32.531Z,34.33
2022-11-07T22:19:00.524Z,40.08
2022-11-07T22:21:28.081Z,33.22
2022-11-07T22:23:56.349Z,32.70
2022-11-07T22:26:25.929Z,34.25
2022-11-07T22:28:54.025Z,38.97
2022-11-07T22:31:32.455Z,33.47
2022-11-07T22:34:01.075Z,34.75
2022-11-07T22:36:29.581Z,35.30
2022-11-07T22:38:58.077Z,38.25
2022-11-07T22:41:27.138Z,39.47
2022-11-07T22:43:54.945Z,32.25
2022-11-07T22:46:25.281Z,33.08
2022-11-07T22:48:53.436Z,30.38
2022-11-07T22:51:23.229Z,31.48
2022-11-07T22:54:03.660Z,30.63
2022-11-07T22:56:32.222Z,29.33
2022-11-07T22:58:59.999Z,31.98
2022-11-07T23:01:34.052Z,30.35
2022-11-07T23:04:01.629Z,32.03
2022-11-07T23:06:29.723Z,29.25
2022-11-07T23:08:58.530Z,31.27
2022-11-07T23:11:48.701Z,29.98
2022-11-07T23:14:20.279Z,26.98
2022-11-07T23:16:55.564Z,32.60
2022-11-07T23:19:25.090Z,30.10
2022-11-07T23:21:56.646Z,27.80
2022-11-07T23:24:24.250Z,28.92
2022-11-07T23:26:51.697Z,26.27
2022-11-07T23:29:24.055Z,27.92
2022-11-07T23:31:52.084Z,27.10
2022-11-07T23:34:20.827Z,27.02
2022-11-07T23:36:51.229Z,27.75
2022-11-07T23:39:20.424Z,26.67
2022-11-07T23:41:47.823Z,26.00
2022-11-07T23:44:15.700Z,29.13
2022-11-07T23:47:02.638Z,29.38
2022-11-07T23:49:48.456Z,24.58
2022-11-07T23:52:17.098Z,21.73
2022-11-07T23:55:02.919Z,22.75
2022-11-07T23:57:34.077Z,25.25
